sensor_id;sensor_type;location;lat;lon;timestamp;temperature;humidity
38938;DHT22;24727;51.974;20.868;2023-10-09T00:02:12;2.90;1.00
38938;DHT22;24727;51.974;20.868;2023-10-09T00:04:41;2.80;1.00
38938;DHT22;24727;51.974;20.868;2023-10-09T00:07:08;2.70;1.00
38938;DHT22;24727;51.974;20.868;2023-10-09T00:09:35;2.70;1.00
38938;DHT22;24727;51.974;20.868;2023-10-09T00:12:19;2.70;1.00
38938;DHT22;24727;51.974;20.868;2023-10-09T00:14:49;2.70;1.00
38938;DHT22;24727;51.974;20.868;2023-10-09T00:17:19;2.70;1.00
38938;DHT22;24727;51.974;20.868;2023-10-09T00:19:46;2.70;1.00
38938;DHT22;24727;51.974;20.868;2023-10-09T00:22:15;2.70;1.00
38938;DHT22;24727;51.974;20.868;2023-10-09T00:24:50;2.70;1.00
38938;DHT22;24727;51.974;20.868;2023-10-09T00:27:36;2.80;1.00
38938;DHT22;24727;51.974;20.868;2023-10-09T00:30:02;2.70;1.00
38938;DHT22;24727;51.974;20.868;2023-10-09T00:32:31;2.70;1.00
38938;DHT22;24727;51.974;20.868;2023-10-09T00:34:59;2.60;1.00
38938;DHT22;24727;51.974;20.868;2023-10-09T00:37:44;2.60;1.00
38938;DHT22;24727;51.974;20.868;2023-10-09T00:40:11;2.60;1.00
38938;DHT22;24727;51.974;20.868;2023-10-09T00:42:47;2.60;1.00
38938;DHT22;24727;51.974;20.868;2023-10-09T00:45:14;2.60;1.00
38938;DHT22;24727;51.974;20.868;2023-10-09T00:47:52;2.60;1.00
38938;DHT22;24727;51.974;20.868;2023-10-09T00:50:22;2.50;1.00
38938;DHT22;24727;51.974;20.868;2023-10-09T00:52:52;2.40;1.00
38938;DHT22;24727;51.974;20.868;2023-10-09T00:55:32;2.40;1.00
38938;DHT22;24727;51.974;20.868;2023-10-09T00:58:12;2.50;1.00
38938;DHT22;24727;51.974;20.868;2023-10-09T01:00:40;2.60;1.00
38938;DHT22;24727;51.974;20.868;2023-10-09T01:03:10;2.60;1.00
38938;DHT22;24727;51.974;20.868;2023-10-09T01:05:46;2.60;1.00
38938;DHT22;24727;51.974;20.868;2023-10-09T01:08:25;2.70;1.00
38938;DHT22;24727;51.974;20.868;2023-10-09T01:11:14;2.60;1.00
38938;DHT22;24727;51.974;20.868;2023-10-09T01:13:56;2.60;1.00
38938;DHT22;24727;51.974;20.868;2023-10-09T01:16:33;2.60;1.00
38938;DHT22;24727;51.974;20.868;2023-10-09T01:19:01;2.60;1.00
38938;DHT22;24727;51.974;20.868;2023-10-09T01:21:32;2.60;1.00
38938;DHT22;24727;51.974;20.868;2023-10-09T01:23:58;2.70;1.00
38938;DHT22;24727;51.974;20.868;2023-10-09T01:26:36;2.80;1.00
38938;DHT22;24727;51.974;20.868;2023-10-09T01:29:10;2.90;1.00
38938;DHT22;24727;51.974;20.868;2023-10-09T01:31:43;2.90;1.00
38938;DHT22;24727;51.974;20.868;2023-10-09T01:34:23;3.00;1.00
38938;DHT22;24727;51.974;20.868;2023-10-09T01:37:13;3.00;1.00
38938;DHT22;24727;51.974;20.868;2023-10-09T01:39:55;3.00;1.00
38938;DHT22;24727;51.974;20.868;2023-10-09T01:42:25;3.00;1.00
38938;DHT22;24727;51.974;20.868;2023-10-09T01:45:01;3.00;1.00
38938;DHT22;24727;51.974;20.868;2023-10-09T01:47:37;3.00;1.00
38938;DHT22;24727;51.974;20.868;2023-10-09T01:50:07;3.00;1.00
38938;DHT22;24727;51.974;20.868;2023-10-09T01:52:45;3.00;1.00
38938;DHT22;24727;51.974;20.868;2023-10-09T01:55:11;2.90;1.00
38938;DHT22;24727;51.974;20.868;2023-10-09T01:58:00;2.90;1.00
38938;DHT22;24727;51.974;20.868;2023-10-09T02:00:34;2.90;1.00
38938;DHT22;24727;51.974;20.868;2023-10-09T02:03:15;2.80;1.00
38938;DHT22;24727;51.974;20.868;2023-10-09T02:05:44;2.80;1.00
38938;DHT22;24727;51.974;20.868;2023-10-09T02:08:11;2.90;1.00
38938;DHT22;24727;51.974;20.868;2023-10-09T02:10:38;2.80;1.00
38938;DHT22;24727;51.974;20.868;2023-10-09T02:13:06;2.70;1.00
38938;DHT22;24727;51.974;20.868;2023-10-09T02:15:35;2.70;1.00
38938;DHT22;24727;51.974;20.868;2023-10-09T02:18:18;2.50;1.00
38938;DHT22;24727;51.974;20.868;2023-10-09T02:23:26;2.50;1.00
38938;DHT22;24727;51.974;20.868;2023-10-09T02:26:09;2.50;1.00
38938;DHT22;24727;51.974;20.868;2023-10-09T02:28:44;2.50;1.00
38938;DHT22;24727;51.974;20.868;2023-10-09T02:31:13;2.50;1.00
38938;DHT22;24727;51.974;20.868;2023-10-09T02:33:40;2.40;1.00
38938;DHT22;24727;51.974;20.868;2023-10-09T02:36:06;2.50;1.00
38938;DHT22;24727;51.974;20.868;2023-10-09T02:38:33;2.50;1.00
38938;DHT22;24727;51.974;20.868;2023-10-09T02:41:01;2.50;1.00
38938;DHT22;24727;51.974;20.868;2023-10-09T02:43:32;2.60;1.00
38938;DHT22;24727;51.974;20.868;2023-10-09T02:46:22;2.50;1.00
38938;DHT22;24727;51.974;20.868;2023-10-09T02:49:03;2.50;1.00
38938;DHT22;24727;51.974;20.868;2023-10-09T02:51:30;2.50;1.00
38938;DHT22;24727;51.974;20.868;2023-10-09T02:54:06;2.60;1.00
38938;DHT22;24727;51.974;20.868;2023-10-09T02:56:52;2.60;1.00
38938;DHT22;24727;51.974;20.868;2023-10-09T02:59:23;2.60;1.00
38938;DHT22;24727;51.974;20.868;2023-10-09T03:01:50;2.50;1.00
38938;DHT22;24727;51.974;20.868;2023-10-09T03:04:19;2.60;1.00
38938;DHT22;24727;51.974;20.868;2023-10-09T03:06:45;2.60;1.00
38938;DHT22;24727;51.974;20.868;2023-10-09T03:09:17;2.60;1.00
38938;DHT22;24727;51.974;20.868;2023-10-09T03:11:49;2.60;1.00
38938;DHT22;24727;51.974;20.868;2023-10-09T03:14:20;2.60;1.00
38938;DHT22;24727;51.974;20.868;2023-10-09T03:16:47;2.60;1.00
38938;DHT22;24727;51.974;20.868;2023-10-09T03:19:16;2.50;1.00
38938;DHT22;24727;51.974;20.868;2023-10-09T03:21:43;2.60;1.00
38938;DHT22;24727;51.974;20.868;2023-10-09T03:24:13;2.60;1.00
38938;DHT22;24727;51.974;20.868;2023-10-09T03:26:39;2.60;1.00
38938;DHT22;24727;51.974;20.868;2023-10-09T03:29:05;2.60;1.00
38938;DHT22;24727;51.974;20.868;2023-10-09T03:31:33;2.60;1.00
38938;DHT22;24727;51.974;20.868;2023-10-09T03:34:00;2.60;1.00
38938;DHT22;24727;51.974;20.868;2023-10-09T03:36:25;2.60;1.00
38938;DHT22;24727;51.974;20.868;2023-10-09T03:38:59;2.60;1.00
38938;DHT22;24727;51.974;20.868;2023-10-09T03:41:26;2.60;1.00
38938;DHT22;24727;51.974;20.868;2023-10-09T03:43:53;2.70;1.00
38938;DHT22;24727;51.974;20.868;2023-10-09T03:46:21;2.60;1.00
38938;DHT22;24727;51.974;20.868;2023-10-09T03:48:59;2.60;1.00
38938;DHT22;24727;51.974;20.868;2023-10-09T03:51:37;2.70;1.00
38938;DHT22;24727;51.974;20.868;2023-10-09T03:54:03;2.60;1.00
38938;DHT22;24727;51.974;20.868;2023-10-09T03:56:36;2.70;1.00
38938;DHT22;24727;51.974;20.868;2023-10-09T03:59:02;2.70;1.00
38938;DHT22;24727;51.974;20.868;2023-10-09T04:01:30;2.70;1.00
38938;DHT22;24727;51.974;20.868;2023-10-09T04:04:05;2.70;1.00
38938;DHT22;24727;51.974;20.868;2023-10-09T04:06:33;2.70;1.00
38938;DHT22;24727;51.974;20.868;2023-10-09T04:09:01;2.80;1.00
38938;DHT22;24727;51.974;20.868;2023-10-09T04:11:47;2.80;1.00
38938;DHT22;24727;51.974;20.868;2023-10-09T04:14:15;2.80;1.00
38938;DHT22;24727;51.974;20.868;2023-10-09T04:16:50;2.80;1.00
38938;DHT22;24727;51.974;20.868;2023-10-09T04:19:38;2.90;1.00
38938;DHT22;24727;51.974;20.868;2023-10-09T04:22:19;2.80;1.00
38938;DHT22;24727;51.974;20.868;2023-10-09T04:24:54;2.90;1.00
38938;DHT22;24727;51.974;20.868;2023-10-09T04:27:20;2.90;1.00
38938;DHT22;24727;51.974;20.868;2023-10-09T04:29:53;2.90;1.00
38938;DHT22;24727;51.974;20.868;2023-10-09T04:32:21;2.90;1.00
38938;DHT22;24727;51.974;20.868;2023-10-09T04:34:51;3.00;1.00
38938;DHT22;24727;51.974;20.868;2023-10-09T04:37:43;3.00;1.00
38938;DHT22;24727;51.974;20.868;2023-10-09T04:40:10;3.10;1.00
38938;DHT22;24727;51.974;20.868;2023-10-09T04:42:59;3.10;1.00
38938;DHT22;24727;51.974;20.868;2023-10-09T04:45:25;3.10;1.00
38938;DHT22;24727;51.974;20.868;2023-10-09T04:48:10;3.10;1.00
38938;DHT22;24727;51.974;20.868;2023-10-09T04:50:37;3.20;1.00
38938;DHT22;24727;51.974;20.868;2023-10-09T04:53:23;3.30;1.00
38938;DHT22;24727;51.974;20.868;2023-10-09T04:55:50;3.40;1.00
38938;DHT22;24727;51.974;20.868;2023-10-09T04:58:24;3.40;1.00
38938;DHT22;24727;51.974;20.868;2023-10-09T05:00:53;3.40;1.00
38938;DHT22;24727;51.974;20.868;2023-10-09T05:03:25;3.30;1.00
38938;DHT22;24727;51.974;20.868;2023-10-09T05:05:56;3.40;1.00
38938;DHT22;24727;51.974;20.868;2023-10-09T05:08:27;3.40;1.00
38938;DHT22;24727;51.974;20.868;2023-10-09T05:11:01;3.40;1.00
38938;DHT22;24727;51.974;20.868;2023-10-09T05:13:29;3.50;1.00
38938;DHT22;24727;51.974;20.868;2023-10-09T05:16:24;3.50;1.00
38938;DHT22;24727;51.974;20.868;2023-10-09T05:19:00;3.50;1.00
38938;DHT22;24727;51.974;20.868;2023-10-09T05:21:31;3.50;1.00
38938;DHT22;24727;51.974;20.868;2023-10-09T05:24:04;3.50;1.00
38938;DHT22;24727;51.974;20.868;2023-10-09T05:26:43;3.50;1.00
38938;DHT22;24727;51.974;20.868;2023-10-09T05:29:23;3.50;1.00
38938;DHT22;24727;51.974;20.868;2023-10-09T05:32:04;3.50;1.00
38938;DHT22;24727;51.974;20.868;2023-10-09T05:34:45;3.40;1.00
38938;DHT22;24727;51.974;20.868;2023-10-09T05:37:29;3.40;1.00
38938;DHT22;24727;51.974;20.868;2023-10-09T05:40:00;3.40;1.00
38938;DHT22;24727;51.974;20.868;2023-10-09T05:42:28;3.60;1.00
38938;DHT22;24727;51.974;20.868;2023-10-09T05:45:09;3.60;1.00
38938;DHT22;24727;51.974;20.868;2023-10-09T05:47:54;3.50;1.00
38938;DHT22;24727;51.974;20.868;2023-10-09T05:50:31;3.50;1.00
38938;DHT22;24727;51.974;20.868;2023-10-09T05:53:01;3.40;1.00
38938;DHT22;24727;51.974;20.868;2023-10-09T05:55:29;3.50;1.00
38938;DHT22;24727;51.974;20.868;2023-10-09T05:58:13;3.60;1.00
38938;DHT22;24727;51.974;20.868;2023-10-09T06:00:58;3.60;1.00
38938;DHT22;24727;51.974;20.868;2023-10-09T06:03:43;3.60;1.00
38938;DHT22;24727;51.974;20.868;2023-10-09T06:06:12;3.70;1.00
38938;DHT22;24727;51.974;20.868;2023-10-09T06:08:45;3.70;1.00
38938;DHT22;24727;51.974;20.868;2023-10-09T06:11:12;3.70;1.00
38938;DHT22;24727;51.974;20.868;2023-10-09T06:13:59;3.70;1.00
38938;DHT22;24727;51.974;20.868;2023-10-09T06:16:30;3.70;1.00
38938;DHT22;24727;51.974;20.868;2023-10-09T06:19:09;3.70;1.00
38938;DHT22;24727;51.974;20.868;2023-10-09T06:21:56;3.80;1.00
38938;DHT22;24727;51.974;20.868;2023-10-09T06:24:40;3.90;1.00
38938;DHT22;24727;51.974;20.868;2023-10-09T06:27:09;3.90;1.00
38938;DHT22;24727;51.974;20.868;2023-10-09T06:29:35;3.90;1.00
38938;DHT22;24727;51.974;20.868;2023-10-09T06:32:08;3.80;1.00
38938;DHT22;24727;51.974;20.868;2023-10-09T06:34:56;3.90;1.00
38938;DHT22;24727;51.974;20.868;2023-10-09T06:37:41;3.90;1.00
38938;DHT22;24727;51.974;20.868;2023-10-09T06:40:25;3.90;1.00
38938;DHT22;24727;51.974;20.868;2023-10-09T06:43:11;4.00;1.00
38938;DHT22;24727;51.974;20.868;2023-10-09T06:45:56;4.00;1.00
38938;DHT22;24727;51.974;20.868;2023-10-09T06:48:40;4.10;1.00
38938;DHT22;24727;51.974;20.868;2023-10-09T06:51:10;4.10;1.00
38938;DHT22;24727;51.974;20.868;2023-10-09T06:53:56;4.10;1.00
38938;DHT22;24727;51.974;20.868;2023-10-09T06:56:22;4.20;1.00
38938;DHT22;24727;51.974;20.868;2023-10-09T06:58:51;4.10;1.00
38938;DHT22;24727;51.974;20.868;2023-10-09T07:01:21;4.10;1.00
38938;DHT22;24727;51.974;20.868;2023-10-09T07:04:08;4.10;1.00
38938;DHT22;24727;51.974;20.868;2023-10-09T07:06:54;4.10;1.00
38938;DHT22;24727;51.974;20.868;2023-10-09T07:09:23;4.20;1.00
38938;DHT22;24727;51.974;20.868;2023-10-09T07:11:52;4.10;1.00
38938;DHT22;24727;51.974;20.868;2023-10-09T07:14:21;4.20;1.00
38938;DHT22;24727;51.974;20.868;2023-10-09T07:17:00;4.30;1.00
38938;DHT22;24727;51.974;20.868;2023-10-09T07:19:31;4.40;1.00
38938;DHT22;24727;51.974;20.868;2023-10-09T07:22:04;4.40;1.00
38938;DHT22;24727;51.974;20.868;2023-10-09T07:24:33;4.50;1.00
38938;DHT22;24727;51.974;20.868;2023-10-09T07:27:19;4.50;1.00
38938;DHT22;24727;51.974;20.868;2023-10-09T07:30:06;4.60;1.00
38938;DHT22;24727;51.974;20.868;2023-10-09T07:38:17;5.00;1.00
38938;DHT22;24727;51.974;20.868;2023-10-09T07:40:51;5.20;1.00
38938;DHT22;24727;51.974;20.868;2023-10-09T07:43:41;5.30;1.00
38938;DHT22;24727;51.974;20.868;2023-10-09T07:46:15;5.50;1.00
38938;DHT22;24727;51.974;20.868;2023-10-09T07:49:18;5.70;1.00
38938;DHT22;24727;51.974;20.868;2023-10-09T07:51:51;5.80;1.00
38938;DHT22;24727;51.974;20.868;2023-10-09T07:54:19;5.90;1.00
38938;DHT22;24727;51.974;20.868;2023-10-09T07:57:01;6.10;1.00
38938;DHT22;24727;51.974;20.868;2023-10-09T07:59:43;6.30;1.00
38938;DHT22;24727;51.974;20.868;2023-10-09T08:02:23;6.40;1.00
38938;DHT22;24727;51.974;20.868;2023-10-09T08:04:59;6.50;1.00
38938;DHT22;24727;51.974;20.868;2023-10-09T08:07:44;6.50;1.00
38938;DHT22;24727;51.974;20.868;2023-10-09T08:10:20;6.60;1.00
38938;DHT22;24727;51.974;20.868;2023-10-09T08:12:48;6.70;1.00
38938;DHT22;24727;51.974;20.868;2023-10-09T08:15:24;6.80;1.00
38938;DHT22;24727;51.974;20.868;2023-10-09T08:18:17;7.00;1.00
38938;DHT22;24727;51.974;20.868;2023-10-09T08:21:05;7.10;1.00
38938;DHT22;24727;51.974;20.868;2023-10-09T08:23:31;7.10;1.00
38938;DHT22;24727;51.974;20.868;2023-10-09T08:26:14;7.40;1.00
38938;DHT22;24727;51.974;20.868;2023-10-09T08:28:41;7.60;1.00
38938;DHT22;24727;51.974;20.868;2023-10-09T08:31:16;7.70;1.00
38938;DHT22;24727;51.974;20.868;2023-10-09T08:34:00;7.80;1.00
38938;DHT22;24727;51.974;20.868;2023-10-09T08:36:28;7.90;1.00
38938;DHT22;24727;51.974;20.868;2023-10-09T08:38:57;8.00;1.00
38938;DHT22;24727;51.974;20.868;2023-10-09T08:41:41;8.00;1.00
38938;DHT22;24727;51.974;20.868;2023-10-09T08:44:07;8.20;1.00
38938;DHT22;24727;51.974;20.868;2023-10-09T08:46:34;8.40;1.00
38938;DHT22;24727;51.974;20.868;2023-10-09T08:49:03;8.60;1.00
38938;DHT22;24727;51.974;20.868;2023-10-09T08:51:37;8.40;99.90
38938;DHT22;24727;51.974;20.868;2023-10-09T08:54:03;8.40;1.40
38938;DHT22;24727;51.974;20.868;2023-10-09T08:56:37;8.30;99.90
38938;DHT22;24727;51.974;20.868;2023-10-09T08:59:06;8.10;1.40
38938;DHT22;24727;51.974;20.868;2023-10-09T09:01:32;8.10;99.90
38938;DHT22;24727;51.974;20.868;2023-10-09T09:04:00;8.10;1.00
38938;DHT22;24727;51.974;20.868;2023-10-09T09:06:36;8.20;99.90
38938;DHT22;24727;51.974;20.868;2023-10-09T09:09:12;8.30;99.90
38938;DHT22;24727;51.974;20.868;2023-10-09T09:11:43;8.30;99.90
38938;DHT22;24727;51.974;20.868;2023-10-09T09:14:18;8.20;99.90
38938;DHT22;24727;51.974;20.868;2023-10-09T09:16:48;8.20;99.90
38938;DHT22;24727;51.974;20.868;2023-10-09T09:19:14;8.20;99.90
38938;DHT22;24727;51.974;20.868;2023-10-09T09:21:59;8.30;99.90
38938;DHT22;24727;51.974;20.868;2023-10-09T09:24:37;8.60;1.00
38938;DHT22;24727;51.974;20.868;2023-10-09T09:27:04;8.80;1.00
38938;DHT22;24727;51.974;20.868;2023-10-09T09:29:44;8.90;1.00
38938;DHT22;24727;51.974;20.868;2023-10-09T09:32:33;8.90;1.00
38938;DHT22;24727;51.974;20.868;2023-10-09T09:35:02;9.10;1.00
38938;DHT22;24727;51.974;20.868;2023-10-09T09:37:32;9.40;1.00
38938;DHT22;24727;51.974;20.868;2023-10-09T09:40:05;9.60;1.00
38938;DHT22;24727;51.974;20.868;2023-10-09T09:42:43;9.70;1.00
38938;DHT22;24727;51.974;20.868;2023-10-09T09:45:20;9.60;1.00
38938;DHT22;24727;51.974;20.868;2023-10-09T09:47:52;9.50;1.00
38938;DHT22;24727;51.974;20.868;2023-10-09T09:50:24;9.90;1.00
38938;DHT22;24727;51.974;20.868;2023-10-09T09:52:54;9.70;1.00
38938;DHT22;24727;51.974;20.868;2023-10-09T09:55:26;9.70;1.00
38938;DHT22;24727;51.974;20.868;2023-10-09T09:57:57;9.50;1.00
38938;DHT22;24727;51.974;20.868;2023-10-09T10:00:28;9.50;1.00
38938;DHT22;24727;51.974;20.868;2023-10-09T10:03:13;9.50;1.00
38938;DHT22;24727;51.974;20.868;2023-10-09T10:05:42;9.50;1.00
38938;DHT22;24727;51.974;20.868;2023-10-09T10:08:19;9.30;99.90
38938;DHT22;24727;51.974;20.868;2023-10-09T10:10:46;9.10;1.00
38938;DHT22;24727;51.974;20.868;2023-10-09T10:16:12;9.00;1.00
38938;DHT22;24727;51.974;20.868;2023-10-09T10:18:58;8.80;1.00
38938;DHT22;24727;51.974;20.868;2023-10-09T10:21:37;8.90;1.00
38938;DHT22;24727;51.974;20.868;2023-10-09T10:32:55;8.70;1.00
38938;DHT22;24727;51.974;20.868;2023-10-09T10:35:36;8.70;1.40
38938;DHT22;24727;51.974;20.868;2023-10-09T10:38:30;8.70;1.00
38938;DHT22;24727;51.974;20.868;2023-10-09T10:41:18;8.50;1.00
38938;DHT22;24727;51.974;20.868;2023-10-09T10:43:51;8.30;1.00
38938;DHT22;24727;51.974;20.868;2023-10-09T10:46:19;8.20;1.00
38938;DHT22;24727;51.974;20.868;2023-10-09T10:49:06;8.10;1.00
38938;DHT22;24727;51.974;20.868;2023-10-09T10:51:38;8.20;1.00
38938;DHT22;24727;51.974;20.868;2023-10-09T10:54:05;8.20;1.00
38938;DHT22;24727;51.974;20.868;2023-10-09T10:56:52;8.20;1.00
38938;DHT22;24727;51.974;20.868;2023-10-09T10:59:21;8.20;1.00
38938;DHT22;24727;51.974;20.868;2023-10-09T11:01:52;8.30;1.00
38938;DHT22;24727;51.974;20.868;2023-10-09T11:04:28;8.30;1.00
38938;DHT22;24727;51.974;20.868;2023-10-09T11:07:11;8.20;1.00
38938;DHT22;24727;51.974;20.868;2023-10-09T11:09:57;8.30;1.00
38938;DHT22;24727;51.974;20.868;2023-10-09T11:12:42;8.20;1.40
38938;DHT22;24727;51.974;20.868;2023-10-09T11:15:13;8.20;1.00
38938;DHT22;24727;51.974;20.868;2023-10-09T11:18:07;8.30;1.00
38938;DHT22;24727;51.974;20.868;2023-10-09T11:20:35;8.40;1.00
38938;DHT22;24727;51.974;20.868;2023-10-09T11:23:02;8.40;1.00
38938;DHT22;24727;51.974;20.868;2023-10-09T11:25:47;8.30;1.00
38938;DHT22;24727;51.974;20.868;2023-10-09T11:28:20;8.30;1.00
38938;DHT22;24727;51.974;20.868;2023-10-09T11:31:12;8.30;1.00
38938;DHT22;24727;51.974;20.868;2023-10-09T11:33:46;8.20;1.00
38938;DHT22;24727;51.974;20.868;2023-10-09T11:36:15;8.30;1.00
38938;DHT22;24727;51.974;20.868;2023-10-09T11:38:42;8.30;1.00
38938;DHT22;24727;51.974;20.868;2023-10-09T11:41:19;8.30;1.00
38938;DHT22;24727;51.974;20.868;2023-10-09T11:43:52;8.30;1.00
38938;DHT22;24727;51.974;20.868;2023-10-09T11:46:22;8.40;1.00
38938;DHT22;24727;51.974;20.868;2023-10-09T11:49:09;8.30;1.00
38938;DHT22;24727;51.974;20.868;2023-10-09T11:51:45;8.30;1.00
38938;DHT22;24727;51.974;20.868;2023-10-09T11:54:33;8.30;1.00
38938;DHT22;24727;51.974;20.868;2023-10-09T11:57:01;8.40;1.00
38938;DHT22;24727;51.974;20.868;2023-10-09T11:59:31;8.40;1.00
38938;DHT22;24727;51.974;20.868;2023-10-09T12:02:09;8.30;1.00
38938;DHT22;24727;51.974;20.868;2023-10-09T12:04:40;8.30;1.00
38938;DHT22;24727;51.974;20.868;2023-10-09T12:07:09;8.30;1.00
38938;DHT22;24727;51.974;20.868;2023-10-09T12:09:39;8.30;1.00
38938;DHT22;24727;51.974;20.868;2023-10-09T12:12:07;8.30;1.00
38938;DHT22;24727;51.974;20.868;2023-10-09T12:14:37;8.30;1.00
38938;DHT22;24727;51.974;20.868;2023-10-09T12:17:07;8.30;1.00
38938;DHT22;24727;51.974;20.868;2023-10-09T12:19:38;8.30;1.00
38938;DHT22;24727;51.974;20.868;2023-10-09T12:22:06;8.40;1.00
38938;DHT22;24727;51.974;20.868;2023-10-09T12:24:36;8.30;1.00
38938;DHT22;24727;51.974;20.868;2023-10-09T12:27:09;8.30;1.00
38938;DHT22;24727;51.974;20.868;2023-10-09T12:29:37;8.30;1.00
38938;DHT22;24727;51.974;20.868;2023-10-09T12:32:04;8.40;1.00
38938;DHT22;24727;51.974;20.868;2023-10-09T12:34:31;8.40;1.00
38938;DHT22;24727;51.974;20.868;2023-10-09T12:36:57;8.50;1.00
38938;DHT22;24727;51.974;20.868;2023-10-09T12:39:29;8.60;1.00
38938;DHT22;24727;51.974;20.868;2023-10-09T12:42:06;8.80;1.00
38938;DHT22;24727;51.974;20.868;2023-10-09T12:44:40;8.70;1.00
38938;DHT22;24727;51.974;20.868;2023-10-09T12:47:08;8.60;1.00
38938;DHT22;24727;51.974;20.868;2023-10-09T12:49:37;8.60;1.00
38938;DHT22;24727;51.974;20.868;2023-10-09T12:52:07;8.60;1.00
38938;DHT22;24727;51.974;20.868;2023-10-09T12:54:43;8.50;1.00
38938;DHT22;24727;51.974;20.868;2023-10-09T12:57:12;8.60;1.00
38938;DHT22;24727;51.974;20.868;2023-10-09T12:59:40;8.70;1.00
38938;DHT22;24727;51.974;20.868;2023-10-09T13:02:15;8.70;1.00
38938;DHT22;24727;51.974;20.868;2023-10-09T13:04:57;8.60;1.00
38938;DHT22;24727;51.974;20.868;2023-10-09T13:07:23;8.60;1.00
38938;DHT22;24727;51.974;20.868;2023-10-09T13:09:49;8.80;1.00
38938;DHT22;24727;51.974;20.868;2023-10-09T13:12:34;8.70;1.00
38938;DHT22;24727;51.974;20.868;2023-10-09T13:15:07;8.70;1.00
38938;DHT22;24727;51.974;20.868;2023-10-09T13:17:38;8.60;1.00
38938;DHT22;24727;51.974;20.868;2023-10-09T13:20:05;8.60;1.00
38938;DHT22;24727;51.974;20.868;2023-10-09T13:22:42;8.60;1.00
38938;DHT22;24727;51.974;20.868;2023-10-09T13:25:10;8.60;1.00
38938;DHT22;24727;51.974;20.868;2023-10-09T13:27:43;8.80;1.00
38938;DHT22;24727;51.974;20.868;2023-10-09T13:30:17;8.80;1.00
38938;DHT22;24727;51.974;20.868;2023-10-09T13:32:50;8.80;1.00
38938;DHT22;24727;51.974;20.868;2023-10-09T13:35:19;8.80;1.00
38938;DHT22;24727;51.974;20.868;2023-10-09T13:37:46;8.90;1.00
38938;DHT22;24727;51.974;20.868;2023-10-09T13:40:23;9.10;1.00
38938;DHT22;24727;51.974;20.868;2023-10-09T13:42:55;9.20;1.00
38938;DHT22;24727;51.974;20.868;2023-10-09T13:45:28;9.30;1.00
38938;DHT22;24727;51.974;20.868;2023-10-09T13:47:56;9.10;1.00
38938;DHT22;24727;51.974;20.868;2023-10-09T13:50:26;9.20;1.00
38938;DHT22;24727;51.974;20.868;2023-10-09T13:52:58;9.20;1.00
38938;DHT22;24727;51.974;20.868;2023-10-09T13:55:25;9.10;1.00
38938;DHT22;24727;51.974;20.868;2023-10-09T13:58:01;9.30;1.00
38938;DHT22;24727;51.974;20.868;2023-10-09T14:00:30;9.40;1.00
38938;DHT22;24727;51.974;20.868;2023-10-09T14:03:00;9.60;1.00
38938;DHT22;24727;51.974;20.868;2023-10-09T14:05:29;9.70;1.00
38938;DHT22;24727;51.974;20.868;2023-10-09T14:07:54;9.80;1.00
38938;DHT22;24727;51.974;20.868;2023-10-09T14:10:27;9.80;1.00
38938;DHT22;24727;51.974;20.868;2023-10-09T14:12:57;10.00;1.00
38938;DHT22;24727;51.974;20.868;2023-10-09T14:15:23;10.20;1.00
38938;DHT22;24727;51.974;20.868;2023-10-09T14:17:49;10.30;1.00
38938;DHT22;24727;51.974;20.868;2023-10-09T14:20:22;10.50;1.00
38938;DHT22;24727;51.974;20.868;2023-10-09T14:23:01;10.40;1.00
38938;DHT22;24727;51.974;20.868;2023-10-09T14:25:36;10.50;1.00
38938;DHT22;24727;51.974;20.868;2023-10-09T14:28:10;10.40;1.00
38938;DHT22;24727;51.974;20.868;2023-10-09T14:30:37;10.40;1.00
38938;DHT22;24727;51.974;20.868;2023-10-09T14:33:11;10.50;1.00
38938;DHT22;24727;51.974;20.868;2023-10-09T14:35:40;10.50;1.00
38938;DHT22;24727;51.974;20.868;2023-10-09T14:38:08;10.60;1.40
38938;DHT22;24727;51.974;20.868;2023-10-09T14:40:44;10.60;1.00
38938;DHT22;24727;51.974;20.868;2023-10-09T14:43:11;10.50;1.00
38938;DHT22;24727;51.974;20.868;2023-10-09T14:45:48;10.40;1.00
38938;DHT22;24727;51.974;20.868;2023-10-09T14:48:20;10.30;1.00
38938;DHT22;24727;51.974;20.868;2023-10-09T14:50:54;10.00;1.00
38938;DHT22;24727;51.974;20.868;2023-10-09T14:53:24;9.90;1.00
38938;DHT22;24727;51.974;20.868;2023-10-09T14:55:56;9.70;1.00
38938;DHT22;24727;51.974;20.868;2023-10-09T14:58:23;9.60;1.00
38938;DHT22;24727;51.974;20.868;2023-10-09T15:00:51;9.50;1.00
38938;DHT22;24727;51.974;20.868;2023-10-09T15:03:18;9.30;1.00
38938;DHT22;24727;51.974;20.868;2023-10-09T15:05:46;9.20;1.00
38938;DHT22;24727;51.974;20.868;2023-10-09T15:08:12;8.90;1.00
38938;DHT22;24727;51.974;20.868;2023-10-09T15:10:50;8.80;1.00
38938;DHT22;24727;51.974;20.868;2023-10-09T15:13:18;8.80;1.00
38938;DHT22;24727;51.974;20.868;2023-10-09T15:15:45;8.80;1.00
38938;DHT22;24727;51.974;20.868;2023-10-09T15:18:16;8.80;1.00
38938;DHT22;24727;51.974;20.868;2023-10-09T15:20:44;8.90;1.00
38938;DHT22;24727;51.974;20.868;2023-10-09T15:23:10;8.80;1.00
38938;DHT22;24727;51.974;20.868;2023-10-09T15:25:36;8.90;1.00
38938;DHT22;24727;51.974;20.868;2023-10-09T15:28:07;8.80;1.00
38938;DHT22;24727;51.974;20.868;2023-10-09T15:30:35;8.80;1.00
38938;DHT22;24727;51.974;20.868;2023-10-09T15:33:05;8.70;1.00
38938;DHT22;24727;51.974;20.868;2023-10-09T15:35:31;8.60;1.00
38938;DHT22;24727;51.974;20.868;2023-10-09T15:38:03;8.50;1.00
38938;DHT22;24727;51.974;20.868;2023-10-09T15:40:31;8.40;1.00
38938;DHT22;24727;51.974;20.868;2023-10-09T15:43:01;8.30;1.00
38938;DHT22;24727;51.974;20.868;2023-10-09T15:45:27;8.30;1.00
38938;DHT22;24727;51.974;20.868;2023-10-09T15:47:55;8.40;1.00
38938;DHT22;24727;51.974;20.868;2023-10-09T15:50:22;8.60;1.00
38938;DHT22;24727;51.974;20.868;2023-10-09T15:52:54;8.70;1.00
38938;DHT22;24727;51.974;20.868;2023-10-09T15:55:21;8.90;1.00
38938;DHT22;24727;51.974;20.868;2023-10-09T15:57:50;9.00;1.00
38938;DHT22;24727;51.974;20.868;2023-10-09T16:00:21;9.00;1.00
38938;DHT22;24727;51.974;20.868;2023-10-09T16:02:48;9.00;1.00
38938;DHT22;24727;51.974;20.868;2023-10-09T16:05:19;9.00;1.00
38938;DHT22;24727;51.974;20.868;2023-10-09T16:07:54;9.00;1.00
38938;DHT22;24727;51.974;20.868;2023-10-09T16:10:21;9.10;1.00
38938;DHT22;24727;51.974;20.868;2023-10-09T16:12:49;9.30;1.00
38938;DHT22;24727;51.974;20.868;2023-10-09T16:15:17;9.50;1.00
38938;DHT22;24727;51.974;20.868;2023-10-09T16:17:47;9.70;1.00
38938;DHT22;24727;51.974;20.868;2023-10-09T16:20:13;9.70;1.00
38938;DHT22;24727;51.974;20.868;2023-10-09T16:22:52;9.70;1.00
38938;DHT22;24727;51.974;20.868;2023-10-09T16:25:19;9.80;1.00
38938;DHT22;24727;51.974;20.868;2023-10-09T16:27:50;9.90;1.00
38938;DHT22;24727;51.974;20.868;2023-10-09T16:30:18;9.90;1.00
38938;DHT22;24727;51.974;20.868;2023-10-09T16:32:48;9.90;1.00
38938;DHT22;24727;51.974;20.868;2023-10-09T16:35:14;9.90;1.00
38938;DHT22;24727;51.974;20.868;2023-10-09T16:37:40;9.80;1.00
38938;DHT22;24727;51.974;20.868;2023-10-09T16:40:10;9.80;1.00
38938;DHT22;24727;51.974;20.868;2023-10-09T16:42:42;9.80;1.00
38938;DHT22;24727;51.974;20.868;2023-10-09T16:45:12;9.70;1.00